Time;durP1;ratioP1;P1;durP2;ratioP2;P2;SDS_P1;SDS_P2;PMS_P1;PMS_P2;Temp;Humidity;BMP_temperature;BMP_pressure;BME280_temperature;BME280_humidity;BME280_pressure;Samples;Min_cycle;Max_cycle;Signal;HPM_P1;HPM_P2
2023/09/19 00:01:08;;;;;;;15.18;2.10;;;15.20;99.90;;;;;;5053589;28;20084;-66
2023/09/19 00:03:37;;;;;;;11.80;2.28;;;15.20;99.90;;;;;;5080445;28;20469;-66
2023/09/19 00:06:04;;;;;;;9.65;1.77;;;15.20;99.90;;;;;;5056183;28;20078;-66
2023/09/19 00:08:31;;;;;;;12.65;2.47;;;15.20;99.90;;;;;;5059330;28;20131;-66
2023/09/19 00:11:05;;;;;;;10.90;2.00;;;15.10;99.90;;;;;;5088115;28;20040;-65
2023/09/19 00:13:35;;;;;;;10.50;1.80;;;15.10;99.90;;;;;;5052899;28;20064;-66
2023/09/19 00:16:07;;;;;;;9.93;1.88;;;15.00;99.90;;;;;;5038143;28;20044;-66
2023/09/19 00:18:34;;;;;;;11.95;1.92;;;15.10;99.90;;;;;;5062209;28;20390;-66
2023/09/19 00:21:00;;;;;;;12.23;1.73;;;15.00;99.90;;;;;;5055741;28;20109;-66
2023/09/19 00:23:26;;;;;;;8.93;1.60;;;15.00;99.90;;;;;;5059487;28;20049;-66
2023/09/19 00:25:57;;;;;;;11.98;2.17;;;15.00;99.90;;;;;;5034939;28;20448;-65
2023/09/19 00:28:23;;;;;;;8.30;2.00;;;15.00;99.90;;;;;;5042571;28;20044;-65
2023/09/19 00:30:52;;;;;;;6.82;1.52;;;14.90;99.90;;;;;;5032389;28;20547;-66
2023/09/19 00:33:22;;;;;;;13.05;2.63;;;14.90;99.90;;;;;;5039938;28;20477;-66
2023/09/19 00:35:54;;;;;;;12.38;2.20;;;14.80;99.90;;;;;;5054812;28;20890;-65
2023/09/19 00:38:22;;;;;;;8.38;1.73;;;14.80;99.90;;;;;;5078342;28;20056;-65
2023/09/19 00:40:49;;;;;;;12.38;1.98;;;14.70;99.90;;;;;;5054468;28;20052;-66
2023/09/19 00:43:16;;;;;;;10.52;2.08;;;14.70;99.90;;;;;;5042232;28;20140;-65
2023/09/19 00:45:45;;;;;;;9.60;1.95;;;14.60;99.90;;;;;;5052720;28;20079;-65
2023/09/19 00:48:11;;;;;;;12.02;2.03;;;14.60;99.90;;;;;;5060816;28;20059;-65
2023/09/19 00:50:41;;;;;;;11.48;2.00;;;14.60;99.90;;;;;;5057432;28;20059;-65
2023/09/19 00:53:13;;;;;;;10.18;1.70;;;14.50;99.90;;;;;;5056833;28;20044;-65
2023/09/19 00:55:39;;;;;;;;;;;14.50;99.90;;;;;;5086851;28;20324;-66
2023/09/19 00:58:06;;;;;;;10.45;2.15;;;14.50;99.90;;;;;;5038690;28;19932;-65
2023/09/19 01:00:33;;;;;;;15.45;2.55;;;14.50;99.90;;;;;;5040605;28;20059;-68
2023/09/19 01:03:03;;;;;;;10.02;2.65;;;14.50;99.90;;;;;;5051693;28;20052;-68
2023/09/19 01:05:32;;;;;;;14.65;2.30;;;14.40;99.90;;;;;;5059918;28;20057;-67
2023/09/19 01:07:58;;;;;;;11.88;2.15;;;14.40;99.90;;;;;;5057403;28;20079;-68
2023/09/19 01:10:25;;;;;;;10.77;2.15;;;14.40;99.90;;;;;;5058367;28;20048;-68
2023/09/19 01:13:18;;;;;;;13.77;2.22;;;14.30;99.90;;;;;;5053115;28;20675;-68
2023/09/19 01:16:11;;;;;;;6.35;1.42;;;14.30;99.90;;;;;;5053198;28;20063;-68
2023/09/19 01:19:00;;;;;;;12.35;2.33;;;14.30;99.90;;;;;;5035786;28;20087;-68
2023/09/19 01:21:35;;;;;;;10.55;1.98;;;14.30;99.90;;;;;;5033040;28;20044;-67
2023/09/19 01:24:09;;;;;;;15.25;2.22;;;14.20;99.90;;;;;;5042671;28;20052;-68
2023/09/19 01:27:00;;;;;;;15.85;2.20;;;14.20;99.90;;;;;;5082950;28;20576;-68
2023/09/19 01:29:46;;;;;;;13.47;2.20;;;14.20;99.90;;;;;;5051947;28;20048;-68
2023/09/19 01:32:21;;;;;;;12.75;2.50;;;14.10;99.90;;;;;;5060275;28;20408;-68
2023/09/19 01:35:03;;;;;;;11.60;2.00;;;14.10;99.90;;;;;;5060151;28;20044;-68
2023/09/19 01:37:31;;;;;;;10.68;2.10;;;14.10;99.90;;;;;;5037350;28;20043;-68
2023/09/19 01:40:04;;;;;;;10.15;2.00;;;14.00;99.90;;;;;;5056369;28;20692;-68
2023/09/19 01:42:55;;;;;;;11.60;1.73;;;14.00;99.90;;;;;;5032474;28;20411;-68
2023/09/19 01:45:52;;;;;;;10.10;2.00;;;14.00;99.90;;;;;;5055136;28;20060;-67
2023/09/19 01:48:29;;;;;;;10.20;2.63;;;14.00;99.90;;;;;;5057357;28;20079;-68
2023/09/19 01:51:06;;;;;;;11.57;2.03;;;14.00;99.90;;;;;;5056231;28;20036;-68
2023/09/19 01:54:08;;;;;;;13.73;2.45;;;13.90;99.90;;;;;;5087354;28;20058;-68
2023/09/19 01:56:51;;;;;;;9.57;1.85;;;13.90;99.90;;;;;;5040939;28;20502;-68
2023/09/19 01:59:23;;;;;;;12.68;2.50;;;13.80;99.90;;;;;;5031009;28;20069;-67
2023/09/19 02:01:52;;;;;;;12.27;2.40;;;13.80;99.90;;;;;;5053151;28;20160;-68
2023/09/19 02:04:17;;;;;;;6.63;1.48;;;13.80;99.90;;;;;;5064745;28;20099;-68
2023/09/19 02:06:43;;;;;;;8.68;1.80;;;13.80;99.90;;;;;;5042453;28;20048;-68
2023/09/19 02:09:09;;;;;;;13.65;1.88;;;13.70;99.90;;;;;;5062225;28;20076;-68
2023/09/19 02:11:36;;;;;;;9.57;1.70;;;13.70;99.90;;;;;;5055808;28;20103;-68
2023/09/19 02:14:02;;;;;;;8.02;1.75;;;13.70;99.90;;;;;;5061545;28;20056;-68
2023/09/19 02:16:28;;;;;;;14.18;2.20;;;13.70;99.90;;;;;;5063896;28;20763;-68
2023/09/19 02:18:54;;;;;;;9.90;1.90;;;13.70;99.90;;;;;;5031546;28;20088;-68
2023/09/19 02:21:21;;;;;;;13.00;1.98;;;13.70;99.90;;;;;;5034073;28;20799;-68
2023/09/19 02:23:47;;;;;;;14.25;2.25;;;13.70;99.90;;;;;;5058573;28;20283;-68
2023/09/19 02:26:13;;;;;;;11.63;2.55;;;13.60;99.90;;;;;;5056413;28;20052;-67
2023/09/19 02:28:39;;;;;;;13.43;2.22;;;13.60;99.90;;;;;;5050208;28;20378;-68
2023/09/19 02:31:05;;;;;;;10.93;1.98;;;13.60;99.90;;;;;;5053813;28;20424;-68
2023/09/19 02:33:32;;;;;;;7.65;2.05;;;13.60;99.90;;;;;;5062386;28;20048;-67
2023/09/19 02:35:59;;;;;;;9.70;1.92;;;13.50;99.90;;;;;;5038508;28;20725;-67
2023/09/19 02:38:28;;;;;;;7.32;1.70;;;13.50;99.90;;;;;;5078689;28;20145;-68
2023/09/19 02:40:55;;;;;;;8.88;1.77;;;13.50;99.90;;;;;;5058083;28;20167;-67
2023/09/19 02:43:21;;;;;;;11.07;1.90;;;13.50;99.90;;;;;;5043137;28;20074;-68
2023/09/19 02:45:49;;;;;;;12.93;2.42;;;13.50;99.90;;;;;;5036687;28;20219;-68
2023/09/19 02:48:18;;;;;;;13.02;2.00;;;13.50;99.90;;;;;;5056829;28;20068;-68
2023/09/19 02:50:45;;;;;;;11.30;2.13;;;13.40;99.90;;;;;;5035854;28;20690;-67
2023/09/19 02:53:12;;;;;;;8.65;1.73;;;13.40;99.90;;;;;;5048864;28;20056;-68
2023/09/19 02:55:40;;;;;;;12.93;1.75;;;13.40;99.90;;;;;;5058932;28;20505;-67
2023/09/19 02:58:14;;;;;;;11.52;2.03;;;13.40;99.90;;;;;;5033621;28;20678;-67
2023/09/19 03:00:42;;;;;;;9.38;1.73;;;13.40;99.90;;;;;;5056319;28;20063;-67
2023/09/19 03:03:11;;;;;;;11.40;2.20;;;13.30;99.90;;;;;;5044789;28;20606;-68
2023/09/19 03:05:38;;;;;;;12.55;2.30;;;13.40;99.90;;;;;;5062335;28;20525;-67
2023/09/19 03:08:04;;;;;;;10.07;1.95;;;13.30;99.90;;;;;;5079542;28;20453;-68
2023/09/19 03:10:30;;;;;;;13.38;2.60;;;13.30;99.90;;;;;;5044268;28;20048;-68
2023/09/19 03:12:58;;;;;;;11.38;1.73;;;13.30;99.90;;;;;;5063882;28;20119;-67
2023/09/19 03:15:23;;;;;;;15.02;2.25;;;13.30;99.90;;;;;;5054558;28;20113;-67
2023/09/19 03:17:49;;;;;;;16.48;1.98;;;13.20;99.90;;;;;;5041637;28;20036;-67
2023/09/19 03:20:18;;;;;;;11.13;2.10;;;13.20;99.90;;;;;;5036310;28;20076;-67
2023/09/19 03:22:44;;;;;;;9.00;1.60;;;13.10;99.90;;;;;;5064397;28;20123;-67
2023/09/19 03:25:11;;;;;;;8.48;1.80;;;13.10;99.90;;;;;;5047865;28;20076;-67
2023/09/19 03:27:40;;;;;;;15.45;2.20;;;13.10;99.90;;;;;;5047237;28;20044;-68
2023/09/19 03:30:08;;;;;;;8.90;1.77;;;13.10;99.90;;;;;;5052779;28;20508;-68
2023/09/19 03:32:43;;;;;;;11.63;1.70;;;13.10;99.90;;;;;;5053373;28;20083;-67
2023/09/19 03:35:09;;;;;;;11.90;1.55;;;13.10;99.90;;;;;;5044532;28;20049;-68
2023/09/19 03:37:34;;;;;;;10.00;1.73;;;13.10;99.90;;;;;;5028869;28;20395;-68
2023/09/19 03:40:04;;;;;;;10.25;1.60;;;13.10;99.90;;;;;;5036368;28;20044;-67
2023/09/19 03:42:31;;;;;;;9.85;1.83;;;13.00;99.90;;;;;;5051890;28;20060;-67
2023/09/19 03:44:57;;;;;;;12.20;1.83;;;13.00;99.90;;;;;;5037706;28;20053;-67
2023/09/19 03:47:22;;;;;;;7.63;1.50;;;13.00;99.90;;;;;;5038533;28;20464;-67
2023/09/19 03:49:48;;;;;;;13.23;2.20;;;13.00;99.90;;;;;;5066338;28;20048;-67
2023/09/19 03:52:15;;;;;;;13.00;1.92;;;13.00;99.90;;;;;;5050392;28;20430;-65
2023/09/19 03:54:42;;;;;;;13.73;2.05;;;12.90;99.90;;;;;;5048303;28;20492;-65
2023/09/19 03:57:08;;;;;;;9.35;1.77;;;12.90;99.90;;;;;;5029833;28;21134;-65
2023/09/19 03:59:35;;;;;;;11.45;1.90;;;12.90;99.90;;;;;;5031463;28;20049;-65
2023/09/19 04:02:02;;;;;;;9.70;2.00;;;12.90;99.90;;;;;;5030901;28;20074;-65
2023/09/19 04:04:29;;;;;;;9.23;1.70;;;12.90;99.90;;;;;;5054251;28;20067;-65
2023/09/19 04:06:54;;;;;;;10.88;1.95;;;12.90;99.90;;;;;;5042991;28;20048;-66
2023/09/19 04:09:20;;;;;;;10.35;2.20;;;12.90;99.90;;;;;;5057003;28;20055;-65
2023/09/19 04:11:46;;;;;;;10.05;1.85;;;12.90;99.90;;;;;;5055593;28;20044;-65
2023/09/19 04:14:12;;;;;;;10.32;2.03;;;12.90;99.90;;;;;;5065361;28;20044;-65
2023/09/19 04:16:38;;;;;;;9.90;1.83;;;12.90;99.90;;;;;;5041349;28;20067;-65
2023/09/19 04:19:05;;;;;;;11.90;2.50;;;12.90;99.90;;;;;;5058809;28;20048;-65
2023/09/19 04:21:31;;;;;;;9.63;1.80;;;12.90;99.90;;;;;;5055307;28;20053;-65
2023/09/19 04:23:57;;;;;;;9.02;1.67;;;12.90;99.90;;;;;;5054608;28;20059;-65
2023/09/19 04:26:23;;;;;;;8.80;1.83;;;12.90;99.90;;;;;;5054720;28;20052;-65
2023/09/19 04:28:49;;;;;;;14.60;2.65;;;12.90;99.90;;;;;;5064336;28;20082;-65
2023/09/19 04:31:14;;;;;;;9.18;1.70;;;12.90;99.90;;;;;;5039288;28;20049;-65
2023/09/19 04:33:40;;;;;;;12.85;2.05;;;12.90;99.90;;;;;;5060608;28;20088;-65
2023/09/19 04:36:07;;;;;;;10.15;1.95;;;12.90;99.90;;;;;;5083023;28;20053;-65
2023/09/19 04:38:33;;;;;;;11.20;2.05;;;13.00;99.90;;;;;;5084683;28;20500;-65
2023/09/19 04:40:59;;;;;;;13.80;1.88;;;13.00;99.90;;;;;;5060496;28;20036;-65
2023/09/19 04:43:26;;;;;;;11.90;1.98;;;13.00;99.90;;;;;;5043166;28;20056;-68
2023/09/19 04:45:55;;;;;;;9.25;2.03;;;12.90;99.90;;;;;;5042885;28;20171;-68
2023/09/19 04:48:25;;;;;;;12.25;2.00;;;13.00;99.90;;;;;;5045936;28;20064;-68
2023/09/19 04:50:51;;;;;;;10.25;1.85;;;13.00;99.90;;;;;;5037066;28;20622;-68
2023/09/19 04:53:20;;;;;;;9.23;1.75;;;13.00;99.90;;;;;;5063929;28;20048;-68
2023/09/19 04:55:49;;;;;;;11.90;1.95;;;13.00;99.90;;;;;;5054519;28;20505;-68
2023/09/19 04:58:15;;;;;;;14.75;2.47;;;13.00;99.90;;;;;;5060796;28;20434;-67
2023/09/19 05:00:41;;;;;;;11.57;2.00;;;13.00;99.90;;;;;;5060017;28;20048;-68
2023/09/19 05:03:08;;;;;;;12.02;2.03;;;13.00;99.90;;;;;;5054729;28;20484;-68
2023/09/19 05:05:34;;;;;;;13.00;2.00;;;13.00;99.90;;;;;;5048028;28;20045;-67
2023/09/19 05:08:00;;;;;;;14.32;2.30;;;13.00;99.90;;;;;;5057692;28;20129;-68
2023/09/19 05:10:26;;;;;;;10.52;1.85;;;13.00;99.90;;;;;;5039440;28;20045;-67
2023/09/19 05:12:55;;;;;;;12.02;1.80;;;13.10;99.90;;;;;;5047094;28;20087;-67
2023/09/19 05:15:21;;;;;;;16.17;2.30;;;13.10;99.90;;;;;;5072992;28;20057;-68
2023/09/19 05:17:51;;;;;;;8.60;1.83;;;13.10;99.90;;;;;;5049451;28;20048;-67
2023/09/19 05:20:37;;;;;;;12.90;2.10;;;13.10;99.90;;;;;;5032450;28;20048;-67
2023/09/19 05:23:11;;;;;;;11.80;1.92;;;13.10;99.90;;;;;;5055246;28;20548;-67
2023/09/19 05:25:39;;;;;;;8.55;1.75;;;13.10;99.90;;;;;;5049176;28;20566;-67
2023/09/19 05:28:10;;;;;;;11.60;1.88;;;13.10;99.90;;;;;;5031729;28;20539;-67
2023/09/19 05:30:38;;;;;;;10.68;1.92;;;13.10;99.90;;;;;;5044678;28;20057;-67
2023/09/19 05:33:05;;;;;;;10.05;1.80;;;13.10;99.90;;;;;;5044244;28;20583;-68
2023/09/19 05:35:31;;;;;;;10.13;2.03;;;13.10;99.90;;;;;;5031781;28;20050;-67
2023/09/19 05:37:58;;;;;;;12.95;1.98;;;13.10;99.90;;;;;;5070773;28;20048;-67
2023/09/19 05:40:24;;;;;;;9.38;1.63;;;13.20;99.90;;;;;;5027767;28;20516;-65
2023/09/19 05:42:50;;;;;;;13.07;2.08;;;13.20;99.90;;;;;;5054852;28;20079;-65
2023/09/19 05:45:22;;;;;;;12.18;2.03;;;13.20;99.90;;;;;;5058014;28;20055;-64
2023/09/19 05:47:55;;;;;;;13.38;2.15;;;13.20;99.90;;;;;;5063030;28;20117;-65
2023/09/19 05:50:23;;;;;;;11.00;1.90;;;13.20;99.90;;;;;;5048125;28;20071;-65
2023/09/19 05:52:52;;;;;;;8.50;1.92;;;13.20;99.90;;;;;;5059275;28;20093;-65
2023/09/19 05:55:18;;;;;;;12.70;2.67;;;13.20;99.90;;;;;;5059432;28;20044;-65
2023/09/19 05:57:50;;;;;;;9.55;2.08;;;13.20;99.90;;;;;;5051106;28;20052;-65
2023/09/19 06:00:17;;;;;;;10.60;2.20;;;13.30;99.90;;;;;;5054909;28;20082;-65
2023/09/19 06:02:44;;;;;;;13.10;2.58;;;13.30;99.90;;;;;;5061858;28;20054;-65
2023/09/19 06:05:10;;;;;;;12.75;2.15;;;13.30;99.90;;;;;;5057828;28;20044;-65
2023/09/19 06:07:38;;;;;;;13.15;2.60;;;13.30;99.90;;;;;;5039820;28;20131;-65
2023/09/19 06:10:05;;;;;;;11.88;1.70;;;13.30;99.90;;;;;;5048040;28;20044;-65
2023/09/19 06:12:33;;;;;;;12.15;2.35;;;13.30;99.90;;;;;;5043772;28;20092;-65
2023/09/19 06:14:59;;;;;;;10.20;2.15;;;13.30;99.90;;;;;;5057541;28;20075;-65
2023/09/19 06:17:27;;;;;;;13.82;2.00;;;13.30;99.90;;;;;;5061520;28;20075;-65
2023/09/19 06:19:53;;;;;;;10.38;2.45;;;13.40;99.90;;;;;;5050224;28;20127;-65
2023/09/19 06:22:19;;;;;;;15.43;2.70;;;13.40;99.90;;;;;;5054556;28;20139;-65
2023/09/19 06:24:46;;;;;;;15.65;2.53;;;13.40;99.90;;;;;;5058657;28;20052;-65
2023/09/19 06:27:13;;;;;;;11.00;2.45;;;13.40;99.90;;;;;;5055656;28;20542;-65
2023/09/19 06:29:39;;;;;;;14.55;2.30;;;13.40;99.90;;;;;;5050593;28;20091;-65
2023/09/19 06:32:09;;;;;;;9.45;2.10;;;13.40;99.90;;;;;;5077093;28;20045;-65
2023/09/19 06:34:34;;;;;;;15.60;2.67;;;13.50;99.90;;;;;;5056301;28;20048;-65
2023/09/19 06:37:00;;;;;;;15.35;2.25;;;13.50;99.90;;;;;;5057056;28;20048;-65
2023/09/19 06:39:26;;;;;;;11.30;2.00;;;13.50;99.90;;;;;;5035807;28;20123;-65
2023/09/19 06:41:55;;;;;;;10.45;2.17;;;13.60;99.90;;;;;;5051562;28;20048;-65
2023/09/19 06:44:24;;;;;;;14.98;2.40;;;13.60;99.90;;;;;;5049850;28;20127;-66
2023/09/19 06:46:51;;;;;;;12.40;2.17;;;13.60;99.90;;;;;;5047731;28;20403;-65
2023/09/19 06:49:17;;;;;;;13.77;2.58;;;13.60;99.90;;;;;;5041120;28;20130;-65
2023/09/19 06:51:43;;;;;;;15.15;2.08;;;13.60;99.90;;;;;;5034897;28;20060;-65
2023/09/19 06:54:10;;;;;;;12.07;2.40;;;13.70;99.90;;;;;;5075964;28;20076;-65
2023/09/19 06:56:35;;;;;;;15.82;2.47;;;13.70;99.90;;;;;;5045408;28;20665;-66
2023/09/19 06:59:02;;;;;;;9.05;1.90;;;13.70;99.90;;;;;;5042492;28;20136;-66
2023/09/19 07:01:29;;;;;;;12.65;2.47;;;13.80;99.90;;;;;;5053303;28;20049;-66
2023/09/19 07:03:54;;;;;;;14.73;2.50;;;13.80;99.90;;;;;;5049415;28;20391;-66
2023/09/19 07:06:20;;;;;;;18.25;2.67;;;13.90;99.90;;;;;;5049908;28;20090;-65
2023/09/19 07:08:46;;;;;;;16.45;2.38;;;13.90;99.90;;;;;;5039798;28;20406;-65
2023/09/19 07:11:12;;;;;;;9.32;1.88;;;14.00;99.90;;;;;;5041702;28;20044;-66
2023/09/19 07:13:39;;;;;;;9.95;2.15;;;14.10;99.90;;;;;;5063545;28;20052;-66
2023/09/19 07:16:05;;;;;;;13.80;2.35;;;14.10;99.90;;;;;;5088055;27;20111;-66
2023/09/19 07:18:31;;;;;;;11.57;2.40;;;14.20;99.90;;;;;;5049611;28;20101;-66
2023/09/19 07:21:04;;;;;;;11.20;2.30;;;14.30;99.90;;;;;;5037129;28;20190;-66
2023/09/19 07:23:34;;;;;;;14.13;2.40;;;14.40;99.90;;;;;;5080091;28;20063;-68
2023/09/19 07:26:01;;;;;;;12.25;2.30;;;14.50;99.90;;;;;;5041608;28;20055;-68
2023/09/19 07:28:28;;;;;;;14.05;2.88;;;14.60;99.90;;;;;;5041808;28;20048;-67
2023/09/19 07:30:54;;;;;;;9.18;1.95;;;14.70;99.90;;;;;;5040421;28;20044;-67
2023/09/19 07:33:20;;;;;;;13.73;2.45;;;14.70;99.90;;;;;;5053696;28;20048;-68
2023/09/19 07:35:47;;;;;;;10.45;2.47;;;14.80;99.90;;;;;;5042319;28;20536;-66
2023/09/19 07:38:13;;;;;;;9.35;1.80;;;14.80;99.90;;;;;;5062764;28;20057;-65
2023/09/19 07:40:39;;;;;;;12.07;2.13;;;14.80;99.90;;;;;;5044386;28;20052;-66
2023/09/19 07:43:06;;;;;;;16.58;2.53;;;14.90;99.90;;;;;;5041127;28;20043;-66
2023/09/19 07:45:32;;;;;;;9.80;2.03;;;14.90;99.90;;;;;;5052012;28;20110;-66
2023/09/19 07:47:58;;;;;;;12.23;2.30;;;15.10;99.90;;;;;;5036313;28;20037;-66
2023/09/19 07:50:26;;;;;;;11.18;2.03;;;15.10;99.90;;;;;;5041054;28;20045;-66
2023/09/19 07:52:53;;;;;;;14.85;1.85;;;15.20;99.90;;;;;;5080800;28;20055;-66
2023/09/19 07:55:23;;;;;;;11.77;2.30;;;15.30;99.90;;;;;;5041494;28;20062;-66
2023/09/19 07:57:49;;;;;;;10.65;2.45;;;15.40;99.90;;;;;;5054669;28;20214;-66
2023/09/19 08:00:15;;;;;;;13.38;2.38;;;15.20;99.90;;;;;;5043520;28;20100;-66
2023/09/19 08:02:41;;;;;;;11.98;2.47;;;15.30;99.90;;;;;;5038797;28;20155;-65
2023/09/19 08:05:14;;;;;;;15.52;2.38;;;15.30;99.90;;;;;;5046925;28;20136;-66
2023/09/19 08:07:43;;;;;;;13.38;2.45;;;15.40;99.90;;;;;;5083375;28;20053;-66
2023/09/19 08:10:15;;;;;;;14.63;2.22;;;15.40;99.90;;;;;;5045303;28;20044;-66
2023/09/19 08:12:48;;;;;;;11.55;2.38;;;15.40;99.90;;;;;;5044238;28;20635;-65
2023/09/19 08:15:14;;;;;;;12.48;2.90;;;15.50;99.90;;;;;;5044946;28;20052;-66
2023/09/19 08:17:40;;;;;;;9.88;2.05;;;15.50;99.90;;;;;;5055349;28;20615;-65
2023/09/19 08:20:07;;;;;;;13.20;2.50;;;15.50;99.90;;;;;;5056630;28;20514;-66
2023/09/19 08:22:34;;;;;;;14.82;2.75;;;15.50;99.90;;;;;;5044287;28;20044;-66
2023/09/19 08:25:01;;;;;;;11.98;2.30;;;15.60;99.90;;;;;;5042487;28;20040;-66
2023/09/19 08:27:27;;;;;;;11.77;2.58;;;15.70;99.90;;;;;;5040673;28;20045;-66
2023/09/19 08:29:53;;;;;;;8.73;2.28;;;15.70;99.90;;;;;;5037689;28;20563;-66
2023/09/19 08:32:24;;;;;;;15.65;3.25;;;15.80;99.90;;;;;;5038460;28;20083;-66
2023/09/19 08:34:50;;;;;;;11.77;2.42;;;15.80;99.90;;;;;;5055325;28;20719;-66
2023/09/19 08:37:18;;;;;;;12.27;2.58;;;15.90;99.90;;;;;;5046188;28;20087;-66
2023/09/19 08:39:44;;;;;;;10.15;2.40;;;15.90;99.90;;;;;;5058638;28;20166;-66
2023/09/19 08:42:11;;;;;;;11.23;2.35;;;15.90;99.90;;;;;;5039938;28;20048;-66
2023/09/19 08:44:40;;;;;;;15.15;2.50;;;15.90;99.90;;;;;;5074526;28;20135;-66
2023/09/19 08:47:17;;;;;;;9.88;2.63;;;16.00;99.90;;;;;;5047651;28;20040;-66
2023/09/19 08:49:57;;;;;;;9.35;2.22;;;16.10;99.90;;;;;;5061025;28;20059;-66
2023/09/19 08:52:33;;;;;;;10.17;2.50;;;16.10;99.90;;;;;;5043291;28;20053;-66
2023/09/19 08:55:04;;;;;;;10.75;2.13;;;16.10;99.90;;;;;;5043862;28;20382;-66
2023/09/19 08:57:35;;;;;;;10.02;2.15;;;16.20;99.90;;;;;;5063338;28;20064;-66
2023/09/19 09:00:09;;;;;;;13.13;2.58;;;16.20;99.90;;;;;;5059070;28;20049;-66
2023/09/19 09:02:42;;;;;;;10.70;1.77;;;16.20;99.90;;;;;;5050234;28;20051;-66
2023/09/19 09:05:10;;;;;;;15.25;2.75;;;16.30;99.90;;;;;;5053406;28;20446;-66
2023/09/19 09:07:38;;;;;;;18.30;2.78;;;16.30;99.90;;;;;;5048358;28;20071;-66
2023/09/19 09:10:04;;;;;;;14.85;3.05;;;16.40;99.90;;;;;;5066395;28;20056;-66
2023/09/19 09:12:30;;;;;;;15.55;2.60;;;16.40;99.90;;;;;;5064830;28;20052;-66
2023/09/19 09:14:57;;;;;;;15.35;2.47;;;16.40;99.90;;;;;;5056992;28;20037;-66
2023/09/19 09:17:24;;;;;;;12.48;2.80;;;16.40;99.90;;;;;;5053040;28;20498;-66
2023/09/19 09:19:56;;;;;;;12.50;2.70;;;16.40;99.90;;;;;;5060691;28;20109;-66
2023/09/19 09:22:23;;;;;;;14.88;2.85;;;16.50;99.90;;;;;;5045793;28;20066;-66
2023/09/19 09:24:58;;;;;;;15.98;3.10;;;16.50;99.90;;;;;;5046349;28;20052;-66
2023/09/19 09:27:24;;;;;;;16.90;3.20;;;16.50;99.90;;;;;;5054050;28;20743;-66
2023/09/19 09:29:51;;;;;;;12.18;2.65;;;16.60;99.90;;;;;;5057619;28;20049;-65
2023/09/19 09:32:26;;;;;;;13.15;3.55;;;16.60;99.90;;;;;;5053133;28;20473;-66
2023/09/19 09:34:53;;;;;;;17.17;3.38;;;16.60;99.90;;;;;;5050180;28;20092;-66
2023/09/19 09:37:22;;;;;;;13.68;3.08;;;16.70;99.90;;;;;;5054945;28;20524;-66
2023/09/19 09:42:46;;;;;;;17.23;2.97;;;16.70;99.90;;;;;;5051500;28;20061;-65
2023/09/19 09:45:28;;;;;;;15.82;3.28;;;16.70;99.90;;;;;;5042867;28;20044;-66
2023/09/19 09:47:57;;;;;;;20.67;3.42;;;16.70;99.90;;;;;;5055277;28;20043;-66
2023/09/19 09:50:29;;;;;;;14.05;3.10;;;16.70;99.90;;;;;;5039832;28;20083;-66
2023/09/19 09:53:07;;;;;;;17.80;3.53;;;16.80;99.90;;;;;;5041724;28;20082;-65
2023/09/19 09:56:00;;;;;;;18.33;3.05;;;16.80;99.90;;;;;;5058197;28;20212;-66
2023/09/19 09:58:29;;;;;;;12.23;3.55;;;16.80;99.90;;;;;;5060338;28;20458;-66
2023/09/19 10:00:59;;;;;;;16.50;2.83;;;16.80;99.90;;;;;;5055777;28;20525;-65
2023/09/19 10:03:41;;;;;;;13.07;2.70;;;16.80;99.90;;;;;;5042770;28;20063;-66
2023/09/19 10:06:24;;;;;;;12.43;3.22;;;16.80;99.90;;;;;;5065384;28;20130;-66
2023/09/19 10:11:51;;;;;;;15.30;2.80;;;16.90;99.90;;;;;;5051042;28;20449;-66
2023/09/19 10:14:19;;;;;;;16.00;3.72;;;17.00;99.90;;;;;;5057349;28;20056;-65
2023/09/19 10:16:49;;;;;;;16.25;3.45;;;17.00;99.90;;;;;;5042145;28;20085;-65
2023/09/19 10:19:30;;;;;;;13.88;3.42;;;17.10;99.90;;;;;;5050931;28;20205;-66
2023/09/19 10:21:58;;;;;;;16.83;3.55;;;17.20;99.90;;;;;;5057141;28;20048;-66
2023/09/19 10:24:27;;;;;;;13.98;2.67;;;17.20;99.90;;;;;;5057886;28;20051;-66
2023/09/19 10:26:54;;;;;;;17.02;3.35;;;17.30;99.90;;;;;;5057073;28;20059;-66
2023/09/19 10:29:21;;;;;;;15.68;3.28;;;17.30;99.90;;;;;;5060378;28;20076;-66
2023/09/19 10:31:50;;;;;;;13.20;2.70;;;17.40;99.90;;;;;;5047520;28;20046;-66
2023/09/19 10:34:17;;;;;;;20.17;4.03;;;17.50;99.90;;;;;;5041090;28;20516;-66
2023/09/19 10:36:46;;;;;;;16.67;2.88;;;17.50;99.90;;;;;;5049599;28;20453;-66
2023/09/19 10:39:19;;;;;;;15.68;2.67;;;17.60;99.90;;;;;;5048558;28;20040;-66
2023/09/19 10:41:53;;;;;;;16.55;2.95;;;17.60;99.90;;;;;;5064181;28;20127;-67
2023/09/19 10:44:28;;;;;;;14.55;2.75;;;17.60;99.90;;;;;;5085969;28;20075;-67
2023/09/19 10:46:54;;;;;;;16.10;3.75;;;17.60;99.90;;;;;;5039269;28;20045;-69
2023/09/19 10:49:22;;;;;;;14.63;2.67;;;17.60;99.90;;;;;;5047953;28;20060;-68
2023/09/19 10:51:54;;;;;;;14.95;2.78;;;17.60;99.90;;;;;;5037938;28;20551;-69
2023/09/19 10:54:26;;;;;;;16.08;3.35;;;17.50;99.90;;;;;;5050364;28;20071;-68
2023/09/19 10:56:53;;;;;;;15.35;3.50;;;17.50;99.90;;;;;;5039521;28;20056;-68
2023/09/19 10:59:21;;;;;;;14.82;3.28;;;17.50;99.90;;;;;;5048567;28;20087;-68
2023/09/19 11:01:52;;;;;;;16.10;3.35;;;17.40;99.90;;;;;;5039772;28;20085;-68
2023/09/19 11:04:26;;;;;;;13.15;3.40;;;17.40;99.90;;;;;;5059364;28;20586;-69
2023/09/19 11:07:14;;;;;;;13.73;3.38;;;17.40;99.90;;;;;;5041981;28;20137;-69
2023/09/19 11:09:53;;;;;;;15.07;2.97;;;17.30;99.90;;;;;;5079520;28;20037;-68
2023/09/19 11:12:40;;;;;;;16.90;3.15;;;17.30;99.90;;;;;;5047295;28;20075;-68
2023/09/19 11:15:08;;;;;;;17.75;4.03;;;17.30;99.90;;;;;;5047817;28;20420;-68
2023/09/19 11:17:37;;;;;;;15.57;2.97;;;17.30;99.90;;;;;;5035509;28;20139;-68
2023/09/19 11:22:50;;;;;;;16.02;3.17;;;17.30;99.90;;;;;;5053623;28;20064;-68
2023/09/19 11:25:31;;;;;;;18.35;3.85;;;17.30;99.90;;;;;;5062829;28;20079;-69
2023/09/19 11:28:06;;;;;;;19.58;3.33;;;17.30;99.90;;;;;;5040587;28;20101;-68
2023/09/19 11:30:40;;;;;;;16.60;3.63;;;17.30;99.90;;;;;;5059813;28;20527;-68
2023/09/19 11:33:28;;;;;;;19.02;2.85;;;17.30;99.90;;;;;;5062514;28;20622;-68
2023/09/19 11:36:19;;;;;;;15.55;2.60;;;17.30;99.90;;;;;;5092068;28;20048;-68
2023/09/19 11:38:45;;;;;;;19.60;3.85;;;17.40;99.90;;;;;;5045329;28;20051;-69
2023/09/19 11:41:25;;;;;;;19.02;3.38;;;17.50;99.90;;;;;;5046525;28;20045;-69
2023/09/19 11:43:54;;;;;;;14.02;3.00;;;17.50;99.90;;;;;;5060461;28;20064;-68
2023/09/19 11:46:23;;;;;;;13.25;3.00;;;17.60;99.90;;;;;;5061134;28;20036;-68
2023/09/19 11:48:50;;;;;;;16.33;4.38;;;17.60;99.90;;;;;;5036639;28;20052;-68
2023/09/19 11:51:26;;;;;;;25.05;4.45;;;17.70;99.90;;;;;;5065933;28;20044;-69
2023/09/19 11:53:57;;;;;;;18.42;3.55;;;17.70;99.90;;;;;;5038412;28;20052;-68
2023/09/19 11:56:25;;;;;;;11.77;2.90;;;17.70;99.90;;;;;;5054740;28;20067;-68
2023/09/19 11:58:54;;;;;;;13.32;3.22;;;17.70;99.90;;;;;;5060463;28;20056;-69
2023/09/19 12:01:25;;;;;;;17.95;2.92;;;17.70;99.90;;;;;;5061661;28;20469;-69
2023/09/19 12:03:57;;;;;;;12.00;2.38;;;17.60;99.90;;;;;;5051204;28;20066;-69
2023/09/19 12:06:29;;;;;;;15.85;2.78;;;17.60;99.90;;;;;;5057895;28;20044;-68
2023/09/19 12:08:58;;;;;;;16.23;3.00;;;17.60;99.90;;;;;;5039937;28;20090;-68
2023/09/19 12:11:33;;;;;;;16.92;3.83;;;17.60;99.90;;;;;;5050330;28;20572;-68
2023/09/19 12:14:00;;;;;;;19.38;3.45;;;17.60;99.90;;;;;;5050664;28;20055;-69
2023/09/19 12:16:30;;;;;;;9.95;2.30;;;17.60;99.90;;;;;;5033774;28;20089;-68
2023/09/19 12:18:57;;;;;;;13.95;2.47;;;17.60;99.90;;;;;;5089332;28;20083;-68
2023/09/19 12:21:36;;;;;;;22.25;3.20;;;17.60;99.90;;;;;;5059985;28;20158;-68
2023/09/19 12:24:11;;;;;;;12.23;2.78;;;17.60;99.90;;;;;;5078871;28;20072;-69
2023/09/19 12:26:47;;;;;;;17.35;3.10;;;17.50;99.90;;;;;;5049713;28;20051;-68
2023/09/19 12:29:20;;;;;;;13.85;2.38;;;17.50;99.90;;;;;;5055705;28;20049;-68
2023/09/19 12:31:57;;;;;;;12.95;2.22;;;17.40;99.90;;;;;;5052792;28;20048;-69
2023/09/19 12:34:29;;;;;;;14.85;2.58;;;17.40;99.90;;;;;;5032223;28;20397;-68
2023/09/19 12:37:22;;;;;;;13.00;2.67;;;17.30;99.90;;;;;;5057375;28;20067;-68
2023/09/19 12:39:51;;;;;;;9.75;1.95;;;17.30;99.90;;;;;;5040033;28;20068;-68
2023/09/19 12:42:19;;;;;;;12.93;2.70;;;17.30;99.90;;;;;;5060451;28;20645;-68
2023/09/19 12:44:47;;;;;;;9.88;2.25;;;17.30;99.90;;;;;;5064432;28;20127;-68
2023/09/19 12:47:23;;;;;;;11.02;2.15;;;17.30;99.90;;;;;;5066998;28;20489;-69
2023/09/19 12:50:18;;;;;;;14.45;2.22;;;17.40;99.90;;;;;;5066794;28;20056;-68
2023/09/19 12:52:45;;;;;;;11.27;2.05;;;17.40;99.90;;;;;;5049960;28;20536;-68
2023/09/19 12:55:24;;;;;;;13.85;2.47;;;17.40;99.90;;;;;;5064918;28;20061;-68
2023/09/19 12:58:12;;;;;;;10.63;2.22;;;17.40;99.90;;;;;;5049521;28;20166;-68
2023/09/19 13:00:41;;;;;;;10.00;2.05;;;17.50;99.90;;;;;;5047020;28;20418;-69